Time;durP1;ratioP1;P1;durP2;ratioP2;P2;SDS_P1;SDS_P2;PMS_P1;PMS_P2;Temp;Humidity;BMP_temperature;BMP_pressure;BME280_temperature;BME280_humidity;BME280_pressure;Samples;Min_cycle;Max_cycle;Signal;HPM_P1;HPM_P2
2023/08/15 00:01:34;;;;;;;11.23;7.22;;;20.40;99.90;;;;;;4984383;28;20027;-72
2023/08/15 00:04:00;;;;;;;13.27;7.32;;;20.40;99.90;;;;;;4984639;28;20050;-72
2023/08/15 00:06:26;;;;;;;13.23;7.25;;;20.40;99.90;;;;;;4983124;28;20062;-73
2023/08/15 00:08:54;;;;;;;16.15;7.40;;;20.40;99.90;;;;;;4986714;28;20368;-73
2023/08/15 00:11:21;;;;;;;16.83;8.32;;;20.40;99.90;;;;;;4987261;28;20037;-73
2023/08/15 00:13:46;;;;;;;14.88;7.68;;;20.40;99.90;;;;;;4986773;28;20767;-72
2023/08/15 00:16:12;;;;;;;14.82;7.63;;;20.40;99.90;;;;;;4988370;28;20031;-72
2023/08/15 00:18:37;;;;;;;16.20;7.57;;;20.40;99.90;;;;;;4987168;28;20050;-72
2023/08/15 00:21:03;;;;;;;15.38;7.55;;;20.40;99.90;;;;;;4987797;28;20101;-73
2023/08/15 00:23:29;;;;;;;13.30;7.70;;;20.40;99.90;;;;;;4987936;28;20391;-72
2023/08/15 00:25:55;;;;;;;13.00;7.18;;;20.40;99.90;;;;;;4988194;28;20047;-73
2023/08/15 00:28:21;;;;;;;10.75;7.20;;;20.40;99.90;;;;;;4988068;28;20027;-72
2023/08/15 00:30:46;;;;;;;14.13;7.55;;;20.40;99.90;;;;;;4988122;28;20030;-72
2023/08/15 00:33:12;;;;;;;19.65;7.53;;;20.40;99.90;;;;;;4986307;28;20051;-72
2023/08/15 00:35:37;;;;;;;16.70;7.72;;;20.40;99.90;;;;;;4987518;28;20027;-72
2023/08/15 00:38:09;;;;;;;14.00;8.18;;;20.40;99.90;;;;;;4987984;28;20027;-73
2023/08/15 00:40:41;;;;;;;16.92;8.15;;;20.30;99.90;;;;;;4986310;28;20075;-73
2023/08/15 00:43:08;;;;;;;14.75;7.88;;;20.30;99.90;;;;;;4986366;28;20098;-73
2023/08/15 00:45:37;;;;;;;16.27;7.50;;;20.30;99.90;;;;;;4986560;28;20494;-73
2023/08/15 00:48:04;;;;;;;17.02;8.68;;;20.20;99.90;;;;;;4986215;28;20027;-73
2023/08/15 00:50:29;;;;;;;12.40;8.20;;;20.20;99.90;;;;;;4986214;28;20038;-72
2023/08/15 00:52:55;;;;;;;15.00;8.45;;;20.10;99.90;;;;;;4986509;28;20023;-73
2023/08/15 00:55:21;;;;;;;12.75;7.97;;;20.10;99.90;;;;;;4987308;28;20041;-72
2023/08/15 00:57:47;;;;;;;12.48;8.40;;;20.10;99.90;;;;;;4986220;28;20550;-72
2023/08/15 01:00:14;;;;;;;13.85;7.93;;;20.10;99.90;;;;;;4987635;28;20042;-73
2023/08/15 01:02:40;;;;;;;15.60;7.97;;;20.00;99.90;;;;;;4987174;28;20031;-73
2023/08/15 01:05:07;;;;;;;14.98;8.32;;;20.00;99.90;;;;;;4985938;28;20046;-73
2023/08/15 01:07:32;;;;;;;15.57;9.10;;;20.00;99.90;;;;;;4987605;28;20046;-72
2023/08/15 01:09:58;;;;;;;19.85;9.85;;;20.10;99.90;;;;;;4985537;28;20026;-72
2023/08/15 01:12:32;;;;;;;15.10;9.32;;;20.10;99.90;;;;;;4987567;28;20054;-72
2023/08/15 01:15:28;;;;;;;12.52;8.95;;;20.10;99.90;;;;;;4987408;28;20034;-72
2023/08/15 01:18:11;;;;;;;16.45;9.07;;;20.10;99.90;;;;;;4985163;28;20034;-72
2023/08/15 01:20:38;;;;;;;15.18;8.48;;;20.10;99.90;;;;;;4986429;28;20094;-72
2023/08/15 01:23:07;;;;;;;12.52;7.97;;;20.10;99.90;;;;;;4985195;28;20026;-72
2023/08/15 01:25:40;;;;;;;18.02;9.00;;;20.10;99.90;;;;;;4985721;28;20026;-72
2023/08/15 01:28:12;;;;;;;11.60;8.32;;;20.10;99.90;;;;;;4987087;28;20050;-72
2023/08/15 01:30:44;;;;;;;14.98;8.95;;;20.00;99.90;;;;;;4986511;28;20035;-72
2023/08/15 01:33:22;;;;;;;15.80;8.93;;;20.00;99.90;;;;;;4986933;28;20607;-72
2023/08/15 01:35:57;;;;;;;14.20;9.00;;;19.90;99.90;;;;;;4986785;28;20110;-72
2023/08/15 01:38:39;;;;;;;13.23;8.52;;;19.90;99.90;;;;;;4987169;28;20022;-72
2023/08/15 01:41:07;;;;;;;12.43;8.52;;;19.90;99.90;;;;;;4986717;28;20046;-74
2023/08/15 01:43:34;;;;;;;14.35;8.93;;;19.90;99.90;;;;;;4985463;28;20042;-73
2023/08/15 01:46:00;;;;;;;16.00;8.20;;;19.90;99.90;;;;;;4986788;28;20023;-72
2023/08/15 01:48:26;;;;;;;15.07;9.75;;;19.80;99.90;;;;;;4986991;28;20364;-73
2023/08/15 01:50:51;;;;;;;15.20;9.70;;;19.80;99.90;;;;;;4986602;28;20058;-73
2023/08/15 01:53:19;;;;;;;17.17;10.13;;;19.80;99.90;;;;;;4986829;28;20053;-72
2023/08/15 01:55:50;;;;;;;16.88;9.60;;;19.80;99.90;;;;;;4986536;28;20380;-73
2023/08/15 01:58:15;;;;;;;16.73;9.38;;;19.80;99.90;;;;;;4986462;28;20034;-71
2023/08/15 02:00:41;;;;;;;16.30;9.70;;;19.70;99.90;;;;;;4986481;28;20528;-73
2023/08/15 02:03:07;;;;;;;14.57;10.05;;;19.70;99.90;;;;;;4984200;28;20046;-72
2023/08/15 02:05:32;;;;;;;16.92;10.15;;;19.70;99.90;;;;;;4986030;28;20031;-72
2023/08/15 02:07:58;;;;;;;15.82;9.57;;;19.60;99.90;;;;;;4986328;28;20031;-73
2023/08/15 02:10:23;;;;;;;20.35;11.43;;;19.60;99.90;;;;;;4986079;28;20407;-73
2023/08/15 02:12:49;;;;;;;17.35;10.70;;;19.60;99.90;;;;;;4984916;28;20037;-72
2023/08/15 02:15:15;;;;;;;18.30;11.55;;;19.60;99.90;;;;;;4986354;28;20067;-73
2023/08/15 02:17:40;;;;;;;22.13;11.88;;;19.50;99.90;;;;;;4984707;28;20475;-72
2023/08/15 02:20:10;;;;;;;22.65;12.55;;;19.50;99.90;;;;;;4984719;28;20043;-73
2023/08/15 02:22:35;;;;;;;20.45;12.13;;;19.50;99.90;;;;;;4984750;28;20479;-73
2023/08/15 02:25:01;;;;;;;19.58;11.88;;;19.40;99.90;;;;;;4985308;28;20057;-71
2023/08/15 02:27:26;;;;;;;20.13;12.40;;;19.40;99.90;;;;;;4984552;28;20411;-72
2023/08/15 02:29:52;;;;;;;21.73;12.68;;;19.30;99.90;;;;;;4984455;28;20027;-73
2023/08/15 02:32:18;;;;;;;19.77;13.05;;;19.40;99.90;;;;;;4985268;28;20035;-73
2023/08/15 02:34:44;;;;;;;21.88;13.27;;;19.30;99.90;;;;;;4984759;28;20042;-72
2023/08/15 02:37:09;;;;;;;19.83;11.93;;;19.30;99.90;;;;;;4985866;28;20840;-73
2023/08/15 02:39:35;;;;;;;18.30;11.63;;;19.20;99.90;;;;;;4985269;28;20042;-73
2023/08/15 02:42:01;;;;;;;22.65;12.30;;;19.20;99.90;;;;;;4986012;28;20030;-74
2023/08/15 02:44:26;;;;;;;25.33;11.55;;;19.20;99.90;;;;;;4985622;28;20023;-71
2023/08/15 02:46:52;;;;;;;20.35;12.00;;;19.20;99.90;;;;;;4984060;28;20034;-72
2023/08/15 02:49:18;;;;;;;22.33;12.45;;;19.30;99.90;;;;;;4985777;28;20035;-71
2023/08/15 02:51:44;;;;;;;18.92;11.32;;;19.30;99.90;;;;;;4985536;28;20033;-71
2023/08/15 02:54:10;;;;;;;20.98;12.38;;;19.30;99.90;;;;;;4985097;28;20035;-72
2023/08/15 02:56:36;;;;;;;20.88;11.27;;;19.30;99.90;;;;;;4984076;28;20077;-71
2023/08/15 02:59:02;;;;;;;18.48;12.57;;;19.30;99.90;;;;;;4985334;28;20022;-71
2023/08/15 03:01:27;;;;;;;18.25;11.27;;;19.30;99.90;;;;;;4983947;28;20034;-72
2023/08/15 03:03:54;;;;;;;24.80;11.85;;;19.30;99.90;;;;;;4985642;28;20068;-72
2023/08/15 03:06:20;;;;;;;17.95;11.02;;;19.30;99.90;;;;;;4983729;28;20094;-71
2023/08/15 03:08:47;;;;;;;19.38;12.32;;;19.30;99.90;;;;;;4985148;28;20047;-70
2023/08/15 03:11:12;;;;;;;19.27;10.98;;;19.30;99.90;;;;;;4985372;28;20081;-71
2023/08/15 03:13:38;;;;;;;19.80;11.00;;;19.30;99.90;;;;;;4983813;28;20472;-71
2023/08/15 03:16:04;;;;;;;22.48;11.80;;;19.30;99.90;;;;;;4985082;28;20365;-71
2023/08/15 03:18:29;;;;;;;18.33;12.02;;;19.30;99.90;;;;;;4985109;28;20031;-71
2023/08/15 03:21:03;;;;;;;18.80;11.15;;;19.30;99.90;;;;;;4983589;28;20058;-72
2023/08/15 03:23:28;;;;;;;21.40;11.73;;;19.30;99.90;;;;;;4984688;28;20103;-71
2023/08/15 03:25:59;;;;;;;19.42;12.02;;;19.30;99.90;;;;;;4983814;28;20058;-71
2023/08/15 03:28:31;;;;;;;21.65;11.05;;;19.30;99.90;;;;;;4985158;28;20061;-72
2023/08/15 03:30:57;;;;;;;20.98;12.32;;;19.30;99.90;;;;;;4985072;28;20095;-72
2023/08/15 03:33:24;;;;;;;17.05;12.45;;;19.20;99.90;;;;;;4985155;28;20055;-72
2023/08/15 03:35:52;;;;;;;20.83;12.13;;;19.30;99.90;;;;;;4984836;28;20034;-71
2023/08/15 03:38:19;;;;;;;17.10;11.52;;;19.30;99.90;;;;;;4985028;28;20034;-71
2023/08/15 03:40:46;;;;;;;21.85;12.38;;;19.30;99.90;;;;;;4984587;28;20165;-70
2023/08/15 03:43:13;;;;;;;19.10;11.85;;;19.30;99.90;;;;;;4986105;28;20538;-71
2023/08/15 03:45:39;;;;;;;20.45;11.93;;;19.30;99.90;;;;;;4988902;28;20050;-71
2023/08/15 03:48:06;;;;;;;17.35;12.27;;;19.30;99.90;;;;;;4988445;28;20518;-72
2023/08/15 03:50:37;;;;;;;20.20;13.45;;;19.30;99.90;;;;;;4988796;28;20034;-73
2023/08/15 03:53:03;;;;;;;24.33;13.10;;;19.30;99.90;;;;;;4987504;28;20031;-72
2023/08/15 03:55:29;;;;;;;22.77;12.57;;;19.30;99.90;;;;;;4988554;28;20465;-73
2023/08/15 03:57:55;;;;;;;19.42;13.43;;;19.30;99.90;;;;;;4988906;28;20058;-73
2023/08/15 04:00:21;;;;;;;20.73;12.10;;;19.30;99.90;;;;;;4987603;28;20026;-73
2023/08/15 04:02:48;;;;;;;19.58;12.98;;;19.30;99.90;;;;;;4988344;28;20054;-73
2023/08/15 04:05:14;;;;;;;24.13;13.65;;;19.30;99.90;;;;;;4988348;28;20062;-72
2023/08/15 04:07:40;;;;;;;20.27;12.68;;;19.30;99.90;;;;;;4987156;28;20039;-72
2023/08/15 04:10:06;;;;;;;23.70;14.00;;;19.40;99.90;;;;;;4988446;28;20627;-74
2023/08/15 04:12:33;;;;;;;26.27;13.38;;;19.30;99.90;;;;;;4988569;28;20034;-72
2023/08/15 04:15:00;;;;;;;23.17;13.63;;;19.30;99.90;;;;;;4988219;28;20364;-74
2023/08/15 04:17:26;;;;;;;21.60;13.32;;;19.30;99.90;;;;;;4987068;28;20118;-72
2023/08/15 04:19:52;;;;;;;24.30;13.20;;;19.40;99.90;;;;;;4978863;28;20039;-72
2023/08/15 04:22:18;;;;;;;22.33;13.63;;;19.40;99.90;;;;;;4973157;28;20035;-73
2023/08/15 04:24:43;;;;;;;25.13;13.30;;;19.40;99.90;;;;;;4987801;28;20035;-73
2023/08/15 04:27:09;;;;;;;23.45;14.50;;;19.40;99.90;;;;;;4988118;28;20053;-74
2023/08/15 04:29:34;;;;;;;20.83;14.05;;;19.40;99.90;;;;;;4983904;28;20090;-72
2023/08/15 04:32:00;;;;;;;24.27;13.45;;;19.40;99.90;;;;;;4977861;28;20039;-74
2023/08/15 04:34:26;;;;;;;21.60;13.88;;;19.40;99.90;;;;;;4975509;28;20050;-73
2023/08/15 04:36:51;;;;;;;25.27;14.23;;;19.40;99.90;;;;;;4968361;28;20042;-74
2023/08/15 04:39:24;;;;;;;23.92;14.10;;;19.40;99.90;;;;;;4967356;28;20102;-73
2023/08/15 04:41:52;;;;;;;25.05;14.45;;;19.40;99.90;;;;;;4971230;28;20035;-73
2023/08/15 04:44:18;;;;;;;25.13;14.38;;;19.40;99.90;;;;;;4985696;28;20045;-73
2023/08/15 04:46:44;;;;;;;21.08;13.40;;;19.40;99.90;;;;;;4987881;28;20043;-73
2023/08/15 04:49:09;;;;;;;26.58;15.50;;;19.40;99.90;;;;;;4988197;28;20031;-73
2023/08/15 04:51:35;;;;;;;22.40;14.15;;;19.40;99.90;;;;;;4988152;28;20567;-74
2023/08/15 04:54:00;;;;;;;27.40;13.77;;;19.40;99.90;;;;;;4986494;28;20031;-73
2023/08/15 04:56:26;;;;;;;24.27;14.00;;;19.40;99.90;;;;;;4988177;28;20038;-73
2023/08/15 04:58:52;;;;;;;28.30;13.15;;;19.50;99.90;;;;;;4986947;28;20034;-74
2023/08/15 05:01:17;;;;;;;25.70;13.15;;;19.50;99.90;;;;;;4988409;28;20050;-74
2023/08/15 05:03:43;;;;;;;29.25;13.98;;;19.50;99.90;;;;;;4987747;28;20027;-74
2023/08/15 05:06:09;;;;;;;28.02;13.68;;;19.50;99.90;;;;;;4978123;28;20091;-75
2023/08/15 05:08:34;;;;;;;24.02;12.80;;;19.50;99.90;;;;;;4969796;28;20036;-74
2023/08/15 05:11:00;;;;;;;21.42;12.05;;;19.50;99.90;;;;;;4973465;28;20066;-73
2023/08/15 05:13:26;;;;;;;27.13;13.48;;;19.50;99.90;;;;;;4981746;28;20043;-74
2023/08/15 05:15:53;;;;;;;21.80;13.00;;;19.50;99.90;;;;;;4980595;28;20459;-74
2023/08/15 05:18:20;;;;;;;20.70;13.25;;;19.50;99.90;;;;;;4984667;28;20031;-74
2023/08/15 05:20:47;;;;;;;25.52;13.27;;;19.50;99.90;;;;;;4985616;28;20081;-73
2023/08/15 05:23:13;;;;;;;23.92;13.40;;;19.50;99.90;;;;;;4984812;28;20045;-74
2023/08/15 05:25:41;;;;;;;29.20;13.63;;;19.50;99.90;;;;;;4986260;28;20034;-75
2023/08/15 05:28:07;;;;;;;21.80;13.65;;;19.50;99.90;;;;;;4983355;28;20027;-75
2023/08/15 05:30:32;;;;;;;19.70;14.07;;;19.50;99.90;;;;;;4982154;28;20027;-74
2023/08/15 05:32:59;;;;;;;20.70;12.77;;;19.50;99.90;;;;;;4972591;28;20055;-75
2023/08/15 05:35:25;;;;;;;19.30;13.38;;;19.60;99.90;;;;;;4983006;28;20023;-75
2023/08/15 05:37:51;;;;;;;19.63;13.05;;;19.60;99.90;;;;;;4980609;28;20046;-75
2023/08/15 05:40:16;;;;;;;19.75;13.20;;;19.60;99.90;;;;;;4973185;28;20587;-74
2023/08/15 05:42:42;;;;;;;19.67;13.38;;;19.60;99.90;;;;;;4984576;28;20033;-74
2023/08/15 05:45:08;;;;;;;20.83;13.70;;;19.70;99.90;;;;;;4980499;28;20062;-74
2023/08/15 05:47:34;;;;;;;23.45;14.30;;;19.60;99.90;;;;;;4981402;28;20065;-73
2023/08/15 05:50:01;;;;;;;21.67;12.95;;;19.70;99.90;;;;;;4981298;28;20027;-75
2023/08/15 05:52:27;;;;;;;28.98;13.48;;;19.70;99.90;;;;;;4979292;28;20034;-73
2023/08/15 05:54:53;;;;;;;25.27;13.55;;;19.70;99.90;;;;;;4984482;28;20031;-74
2023/08/15 05:57:19;;;;;;;20.40;12.98;;;19.70;99.90;;;;;;4984219;28;20038;-74
2023/08/15 05:59:45;;;;;;;20.38;13.90;;;19.70;99.90;;;;;;4985392;28;20066;-74
2023/08/15 06:02:11;;;;;;;23.02;13.98;;;19.70;99.90;;;;;;4982892;28;20471;-74
2023/08/15 06:04:37;;;;;;;19.05;13.80;;;19.80;99.90;;;;;;4985201;28;20035;-74
2023/08/15 06:07:03;;;;;;;25.52;13.80;;;19.80;99.90;;;;;;4985424;28;20030;-74
2023/08/15 06:09:28;;;;;;;20.52;14.23;;;19.80;99.90;;;;;;4986381;28;20034;-75
2023/08/15 06:11:54;;;;;;;20.70;14.07;;;19.80;99.90;;;;;;4987097;28;20027;-74
2023/08/15 06:14:23;;;;;;;23.67;14.20;;;19.80;99.90;;;;;;4986696;28;20058;-76
2023/08/15 06:16:49;;;;;;;25.95;14.27;;;19.90;99.90;;;;;;4985709;28;20023;-74
2023/08/15 06:19:15;;;;;;;24.05;14.25;;;19.90;99.90;;;;;;4985447;28;20085;-73
2023/08/15 06:21:43;;;;;;;23.52;14.52;;;19.90;99.90;;;;;;4986351;28;20103;-74
2023/08/15 06:24:12;;;;;;;20.67;13.15;;;19.90;99.90;;;;;;4986835;28;20027;-75
2023/08/15 06:26:39;;;;;;;25.17;14.57;;;19.90;99.90;;;;;;4986547;28;20082;-74
2023/08/15 06:29:06;;;;;;;21.58;12.80;;;19.90;99.90;;;;;;4982020;28;20592;-73
2023/08/15 06:31:35;;;;;;;28.80;14.18;;;19.90;99.90;;;;;;4978987;28;20039;-74
2023/08/15 06:34:02;;;;;;;24.15;14.27;;;20.00;99.90;;;;;;4979990;28;20452;-74
2023/08/15 06:36:28;;;;;;;22.85;14.05;;;20.00;99.90;;;;;;4981606;28;20395;-75
2023/08/15 06:38:55;;;;;;;22.17;14.18;;;20.00;99.90;;;;;;4985041;28;20058;-74
2023/08/15 06:41:22;;;;;;;21.35;13.15;;;20.00;99.90;;;;;;4985617;28;20043;-74
2023/08/15 06:43:47;;;;;;;23.73;13.18;;;20.00;99.90;;;;;;4985183;28;20077;-73
2023/08/15 06:46:14;;;;;;;20.85;13.68;;;20.00;99.90;;;;;;4986083;28;20038;-73
2023/08/15 06:48:39;;;;;;;24.58;13.57;;;19.90;99.90;;;;;;4984479;28;20443;-73
2023/08/15 06:51:05;;;;;;;25.20;13.98;;;20.00;99.90;;;;;;4984771;28;20034;-74
2023/08/15 06:53:31;;;;;;;23.90;13.68;;;20.00;99.90;;;;;;4983262;28;20026;-75
2023/08/15 06:55:57;;;;;;;21.63;13.38;;;20.00;99.90;;;;;;4983935;28;20042;-73
2023/08/15 06:58:23;;;;;;;21.90;13.95;;;20.00;99.90;;;;;;4981190;28;20026;-76
2023/08/15 07:00:48;;;;;;;21.40;13.57;;;20.00;99.90;;;;;;4984761;28;20042;-74
2023/08/15 07:03:15;;;;;;;21.23;14.07;;;20.00;99.90;;;;;;4982434;28;20053;-73
2023/08/15 07:05:41;;;;;;;24.20;14.75;;;20.00;99.90;;;;;;4985771;28;20035;-74
2023/08/15 07:08:07;;;;;;;29.15;15.70;;;20.10;99.90;;;;;;4985401;28;20096;-75
2023/08/15 07:10:35;;;;;;;21.52;13.55;;;20.10;99.90;;;;;;4985383;28;20023;-72
2023/08/15 07:13:01;;;;;;;22.30;13.85;;;20.10;99.90;;;;;;4985720;28;20031;-72
2023/08/15 07:15:27;;;;;;;21.95;13.40;;;20.20;99.90;;;;;;4985885;28;20038;-72
2023/08/15 07:17:52;;;;;;;21.83;13.63;;;20.30;99.90;;;;;;4985592;28;20062;-73
2023/08/15 07:20:18;;;;;;;21.40;13.32;;;20.30;99.90;;;;;;4985784;28;20055;-72
2023/08/15 07:22:43;;;;;;;18.85;13.85;;;20.30;99.90;;;;;;4984972;28;20033;-72
2023/08/15 07:25:10;;;;;;;19.70;12.70;;;20.30;99.90;;;;;;4984775;28;20026;-72
2023/08/15 07:27:36;;;;;;;21.40;12.73;;;20.40;99.90;;;;;;4985899;28;20411;-73
2023/08/15 07:30:02;;;;;;;19.95;13.00;;;20.40;99.90;;;;;;4985495;28;20101;-73
2023/08/15 07:32:30;;;;;;;27.77;13.30;;;20.40;99.90;;;;;;4983600;28;20526;-72
2023/08/15 07:34:56;;;;;;;21.77;13.40;;;20.50;99.90;;;;;;4985893;28;20035;-71
2023/08/15 07:37:22;;;;;;;20.70;13.52;;;20.50;99.90;;;;;;4985435;28;20106;-70
2023/08/15 07:39:57;;;;;;;22.33;12.93;;;20.50;99.90;;;;;;4985399;28;20132;-73
2023/08/15 07:42:23;;;;;;;19.98;12.55;;;20.60;99.90;;;;;;4985978;28;20027;-74
2023/08/15 07:44:48;;;;;;;17.98;13.20;;;20.60;99.90;;;;;;4985390;28;20061;-73
2023/08/15 07:47:14;;;;;;;22.63;13.05;;;20.70;99.90;;;;;;4985543;28;20037;-71
2023/08/15 07:49:39;;;;;;;21.30;13.13;;;20.70;99.90;;;;;;4980172;28;20039;-73
2023/08/15 07:52:05;;;;;;;19.88;12.65;;;20.80;99.90;;;;;;4976953;28;20066;-71
2023/08/15 07:54:31;;;;;;;16.98;11.90;;;20.80;99.90;;;;;;4978235;28;20134;-71
2023/08/15 07:56:56;;;;;;;19.65;12.73;;;20.90;99.90;;;;;;4978688;28;20097;-73
2023/08/15 07:59:22;;;;;;;18.40;12.23;;;20.90;99.90;;;;;;4980776;28;20050;-73
2023/08/15 08:01:48;;;;;;;19.88;12.55;;;20.90;99.90;;;;;;4980380;28;20033;-75
2023/08/15 08:04:14;;;;;;;19.77;12.10;;;20.90;99.90;;;;;;4982671;28;20335;-76
2023/08/15 08:06:39;;;;;;;18.85;12.13;;;21.00;99.90;;;;;;4975248;28;20480;-74
2023/08/15 08:09:05;;;;;;;20.10;12.90;;;21.00;99.90;;;;;;4977413;28;20045;-72
2023/08/15 08:11:31;;;;;;;17.48;12.60;;;21.00;99.90;;;;;;4964259;28;20035;-72
2023/08/15 08:14:03;;;;;;;18.85;12.98;;;21.10;99.90;;;;;;4969657;28;20030;-72
2023/08/15 08:16:34;;;;;;;22.95;12.95;;;21.10;99.90;;;;;;4971346;28;20212;-73
2023/08/15 08:19:00;;;;;;;22.65;13.38;;;21.20;99.90;;;;;;4974073;28;20031;-72
2023/08/15 08:21:25;;;;;;;22.92;14.45;;;21.30;99.90;;;;;;4979079;28;20209;-72
2023/08/15 08:23:51;;;;;;;19.67;13.52;;;21.40;99.90;;;;;;4975159;28;20050;-72
2023/08/15 08:26:17;;;;;;;18.85;12.82;;;21.50;99.90;;;;;;4976326;28;20086;-72
2023/08/15 08:28:43;;;;;;;17.98;13.70;;;21.60;99.90;;;;;;4986299;28;20035;-73
2023/08/15 08:31:08;;;;;;;21.77;14.18;;;21.70;99.90;;;;;;4988873;28;20087;-72
2023/08/15 08:33:34;;;;;;;21.92;14.43;;;21.70;99.90;;;;;;4988047;28;20062;-73
2023/08/15 08:35:59;;;;;;;22.98;14.70;;;21.70;99.90;;;;;;4986827;28;20380;-72
2023/08/15 08:38:25;;;;;;;24.60;16.10;;;21.80;99.90;;;;;;4981087;28;20059;-73
2023/08/15 08:40:53;;;;;;;25.38;14.80;;;21.80;99.90;;;;;;4980822;28;20046;-71
2023/08/15 08:43:20;;;;;;;22.25;16.13;;;21.90;99.90;;;;;;4984816;28;20058;-73
2023/08/15 08:45:49;;;;;;;26.85;19.30;;;21.90;99.90;;;;;;4988338;28;20086;-73
2023/08/15 08:48:16;;;;;;;27.55;18.85;;;22.10;99.90;;;;;;4988211;28;20491;-73
2023/08/15 08:50:41;;;;;;;26.33;19.35;;;22.10;99.90;;;;;;4988206;28;20027;-77
2023/08/15 08:53:07;;;;;;;26.60;18.55;;;22.10;99.90;;;;;;4984958;28;20133;-70
2023/08/15 08:55:34;;;;;;;27.65;19.20;;;22.20;99.90;;;;;;4979287;28;20571;-74
2023/08/15 08:58:02;;;;;;;33.30;20.85;;;22.10;99.90;;;;;;4976898;28;20040;-73
2023/08/15 09:00:32;;;;;;;28.20;21.88;;;22.10;99.90;;;;;;4975961;28;20039;-72
2023/08/15 09:02:58;;;;;;;30.27;21.77;;;22.10;99.90;;;;;;4977143;28;20097;-71
2023/08/15 09:05:24;;;;;;;33.20;22.55;;;22.10;99.90;;;;;;4984972;28;20456;-73
2023/08/15 09:07:51;;;;;;;28.95;22.75;;;22.00;99.90;;;;;;4987756;28;20035;-72
2023/08/15 09:10:16;;;;;;;29.70;21.52;;;22.00;99.90;;;;;;4978783;28;20043;-71
2023/08/15 09:12:45;;;;;;;31.00;22.77;;;22.00;99.90;;;;;;4985857;28;20034;-71
2023/08/15 09:15:11;;;;;;;29.98;23.95;;;21.90;99.90;;;;;;4986277;28;20045;-71
2023/08/15 09:17:40;;;;;;;38.10;25.27;;;22.00;99.90;;;;;;4980678;28;20102;-71
2023/08/15 09:20:18;;;;;;;31.67;25.30;;;22.00;99.90;;;;;;4986666;28;20050;-72
2023/08/15 09:22:46;;;;;;;30.45;23.65;;;22.00;99.90;;;;;;4984438;28;20027;-73
2023/08/15 09:25:17;;;;;;;33.08;23.63;;;22.10;99.90;;;;;;4978668;28;20026;-72
2023/08/15 09:27:44;;;;;;;36.67;24.85;;;22.10;99.90;;;;;;4968412;28;20016;-70
2023/08/15 09:30:14;;;;;;;33.30;23.30;;;22.20;99.90;;;;;;4968024;28;20027;-71
2023/08/15 09:32:40;;;;;;;37.33;23.75;;;22.20;99.90;;;;;;4979905;28;20046;-71
2023/08/15 09:35:09;;;;;;;33.47;24.27;;;22.40;99.90;;;;;;4987437;28;20122;-72
2023/08/15 09:37:39;;;;;;;34.38;23.52;;;22.60;99.90;;;;;;4985099;28;20050;-72
2023/08/15 09:40:08;;;;;;;35.83;23.13;;;22.80;99.90;;;;;;4985746;28;20049;-72
2023/08/15 09:42:35;;;;;;;29.65;21.42;;;23.00;99.90;;;;;;4986722;28;20034;-72
2023/08/15 09:45:02;;;;;;;31.23;20.50;;;23.10;99.90;;;;;;4986001;28;20023;-71
2023/08/15 09:47:28;;;;;;;28.42;17.98;;;23.20;99.90;;;;;;4986519;28;20053;-74
2023/08/15 09:49:55;;;;;;;24.42;17.42;;;23.40;99.90;;;;;;4987441;28;20078;-72
2023/08/15 09:52:22;;;;;;;24.10;17.52;;;23.50;99.90;;;;;;4985177;28;20023;-73
2023/08/15 09:54:48;;;;;;;22.35;16.58;;;23.60;99.90;;;;;;4987312;28;20027;-75
2023/08/15 09:57:14;;;;;;;25.10;16.30;;;23.70;99.90;;;;;;4984340;28;20038;-75
2023/08/15 09:59:40;;;;;;;20.08;14.88;;;23.70;99.90;;;;;;4982180;28;20102;-70
2023/08/15 10:02:20;;;;;;;25.73;15.90;;;23.70;99.90;;;;;;4974130;28;20042;-72
2023/08/15 10:04:50;;;;;;;20.02;13.93;;;23.70;99.90;;;;;;4976139;28;20038;-73
2023/08/15 10:07:17;;;;;;;18.33;13.30;;;23.80;99.90;;;;;;4982819;28;20054;-70
2023/08/15 10:09:43;;;;;;;26.95;10.73;;;23.80;99.90;;;;;;4980548;28;20023;-74
2023/08/15 10:12:10;;;;;;;19.38;10.25;;;23.90;99.90;;;;;;4969772;28;20102;-71
2023/08/15 10:14:36;;;;;;;15.65;9.38;;;23.90;99.90;;;;;;4967702;29;20020;-72
2023/08/15 10:17:02;;;;;;;12.38;8.68;;;24.00;99.90;;;;;;4967402;28;20028;-70
2023/08/15 10:19:32;;;;;;;23.23;8.55;;;24.10;99.90;;;;;;4985461;28;20034;-75
2023/08/15 10:21:58;;;;;;;11.82;6.97;;;24.10;99.90;;;;;;4980865;28;20038;-73
2023/08/15 10:24:24;;;;;;;16.45;7.53;;;24.10;99.90;;;;;;4984914;28;20035;-76
2023/08/15 10:26:53;;;;;;;10.73;6.00;;;24.20;99.90;;;;;;4984526;28;20030;-73
2023/08/15 10:29:18;;;;;;;16.13;6.25;;;24.30;99.90;;;;;;4979990;28;20050;-71
2023/08/15 10:31:44;;;;;;;10.07;5.65;;;24.40;99.90;;;;;;4978175;28;20848;-70
2023/08/15 10:34:10;;;;;;;10.20;5.00;;;24.50;99.90;;;;;;4983792;28;20039;-72
2023/08/15 10:36:39;;;;;;;12.18;4.50;;;24.60;99.90;;;;;;4985240;28;20404;-71
2023/08/15 10:39:06;;;;;;;13.48;4.25;;;24.60;99.90;;;;;;4984913;28;20469;-71
2023/08/15 10:41:36;;;;;;;9.18;4.13;;;24.70;99.90;;;;;;4985772;28;20109;-75
2023/08/15 10:44:06;;;;;;;9.93;4.35;;;24.70;99.90;;;;;;4984409;28;20027;-74
2023/08/15 10:46:33;;;;;;;8.00;3.83;;;24.60;99.90;;;;;;4984013;28;20074;-72
2023/08/15 10:49:10;;;;;;;10.75;4.32;;;24.60;99.90;;;;;;4985839;28;20027;-73
2023/08/15 10:51:41;;;;;;;8.65;4.53;;;24.70;99.90;;;;;;4984286;28;20087;-73
2023/08/15 10:54:11;;;;;;;8.45;4.07;;;24.70;99.90;;;;;;4984953;28;20037;-73
2023/08/15 10:56:39;;;;;;;6.47;3.65;;;24.80;99.90;;;;;;4985754;28;20031;-72
2023/08/15 10:59:07;;;;;;;5.63;3.25;;;24.90;99.90;;;;;;4983875;28;20050;-71
2023/08/15 11:01:36;;;;;;;8.50;3.28;;;25.00;99.90;;;;;;4984970;28;20081;-73
2023/08/15 11:04:03;;;;;;;6.47;2.60;;;25.00;99.90;;;;;;4976584;28;20531;-71
2023/08/15 11:06:29;;;;;;;6.50;2.65;;;25.00;99.90;;;;;;4964748;29;20034;-75
2023/08/15 11:08:58;;;;;;;7.05;2.60;;;25.10;99.90;;;;;;4985153;28;20026;-73
2023/08/15 11:11:24;;;;;;;4.45;1.90;;;25.20;99.90;;;;;;4985621;28;20043;-75
2023/08/15 11:13:53;;;;;;;6.10;2.30;;;25.30;99.90;;;;;;4975748;28;20046;-71
2023/08/15 11:16:21;;;;;;;6.57;1.98;;;25.40;99.90;;;;;;4976840;28;20039;-71
2023/08/15 11:18:47;;;;;;;4.15;1.90;;;25.50;99.90;;;;;;4973823;28;20035;-71
2023/08/15 11:21:15;;;;;;;4.45;2.10;;;25.50;99.90;;;;;;4985332;28;20046;-72
2023/08/15 11:23:41;;;;;;;5.22;2.38;;;25.40;99.90;;;;;;4981692;28;20031;-74
2023/08/15 11:26:12;;;;;;;4.28;2.22;;;25.40;99.90;;;;;;4965720;28;20071;-73
2023/08/15 11:28:38;;;;;;;5.05;2.20;;;25.40;99.90;;;;;;4961652;28;20365;-74
2023/08/15 11:31:10;;;;;;;7.28;2.47;;;25.30;99.90;;;;;;4972890;28;20095;-72
2023/08/15 11:33:36;;;;;;;7.25;2.45;;;25.30;99.90;;;;;;4972474;28;20074;-73
2023/08/15 11:36:03;;;;;;;4.95;2.08;;;25.40;99.90;;;;;;4982992;28;20058;-72
2023/08/15 11:38:30;;;;;;;5.38;2.30;;;25.60;99.90;;;;;;4983563;28;20023;-71
2023/08/15 11:40:57;;;;;;;6.63;2.40;;;25.70;99.90;;;;;;4979540;28;20027;-72
2023/08/15 11:43:23;;;;;;;4.57;2.00;;;25.90;99.90;;;;;;4984934;28;20046;-73
2023/08/15 11:45:49;;;;;;;7.63;2.33;;;26.00;99.90;;;;;;4983934;28;20026;-72
2023/08/15 11:48:14;;;;;;;4.95;2.22;;;25.90;99.90;;;;;;4981023;28;20125;-72
2023/08/15 11:50:41;;;;;;;5.32;2.13;;;25.80;99.90;;;;;;4978739;28;20038;-72
2023/08/15 11:53:25;;;;;;;3.45;1.70;;;25.90;99.90;;;;;;4984217;28;20019;-71
2023/08/15 11:55:51;;;;;;;5.53;2.13;;;25.80;99.90;;;;;;4984664;28;20031;-77
2023/08/15 11:58:26;;;;;;;7.05;2.03;;;25.90;99.90;;;;;;4982197;28;20134;-74
2023/08/15 12:01:05;;;;;;;7.25;2.10;;;25.80;99.90;;;;;;4966175;28;20126;-74
2023/08/15 12:03:32;;;;;;;3.97;1.58;;;25.80;99.90;;;;;;4964034;28;20023;-73
2023/08/15 12:06:00;;;;;;;6.20;2.15;;;25.80;99.90;;;;;;4976047;28;20029;-73
2023/08/15 12:08:27;;;;;;;4.05;2.00;;;25.90;99.90;;;;;;4988410;28;20038;-71
2023/08/15 12:10:57;;;;;;;4.18;2.00;;;26.00;99.90;;;;;;4987793;28;20097;-74
2023/08/15 12:13:29;;;;;;;5.00;1.98;;;25.90;99.90;;;;;;4988447;28;20027;-73
2023/08/15 12:15:54;;;;;;;5.10;2.10;;;25.70;99.90;;;;;;4988805;28;20035;-73
2023/08/15 12:18:20;;;;;;;5.78;1.98;;;25.50;99.90;;;;;;4988536;28;20026;-72
2023/08/15 12:20:46;;;;;;;6.63;2.20;;;25.30;99.90;;;;;;4987618;28;20093;-73
2023/08/15 12:23:11;;;;;;;5.18;1.60;;;25.20;99.90;;;;;;4987545;28;20034;-71
2023/08/15 12:25:37;;;;;;;3.92;1.85;;;25.10;99.90;;;;;;4986478;28;20027;-71
2023/08/15 12:28:04;;;;;;;2.85;1.70;;;25.30;99.90;;;;;;4988074;28;20058;-72
2023/08/15 12:30:29;;;;;;;4.65;1.67;;;25.50;99.90;;;;;;4988173;28;20022;-72